createdAt,value
2022-08-18T00:00:11.007Z,22.37
2022-08-18T00:02:56.759Z,22.38
2022-08-18T00:05:32.001Z,22.35
2022-08-18T00:08:01.514Z,22.30
2022-08-18T00:10:30.242Z,22.35
2022-08-18T00:13:01.323Z,22.39
2022-08-18T00:15:30.435Z,22.47
2022-08-18T00:17:59.180Z,22.54
2022-08-18T00:20:28.074Z,22.60
2022-08-18T00:22:58.254Z,22.57
2022-08-18T00:25:27.174Z,22.64
2022-08-18T00:27:55.822Z,22.64
2022-08-18T00:30:24.669Z,22.65
2022-08-18T00:32:55.762Z,22.65
2022-08-18T00:35:29.140Z,22.66
2022-08-18T00:38:02.751Z,22.66
2022-08-18T00:40:40.512Z,22.67
2022-08-18T00:43:14.763Z,22.66
2022-08-18T00:45:44.670Z,22.63
2022-08-18T00:48:15.611Z,22.63
2022-08-18T00:50:49.380Z,22.62
2022-08-18T00:53:25.520Z,22.60
2022-08-18T00:55:56.642Z,22.56
2022-08-18T00:58:31.316Z,22.52
2022-08-18T01:01:06.386Z,22.44
2022-08-18T01:03:40.238Z,22.43
2022-08-18T01:06:16.843Z,22.39
2022-08-18T01:08:47.073Z,22.35
2022-08-18T01:11:15.832Z,22.31
2022-08-18T01:13:45.140Z,22.26
2022-08-18T01:16:24.002Z,22.28
2022-08-18T01:19:02.754Z,22.29
2022-08-18T01:21:45.101Z,22.31
2022-08-18T01:24:21.233Z,22.31
2022-08-18T01:26:50.801Z,22.12
2022-08-18T01:29:20.902Z,22.04
2022-08-18T01:31:55.584Z,21.98
2022-08-18T01:34:28.751Z,21.93
2022-08-18T01:36:58.919Z,21.83
2022-08-18T01:41:21.741Z,21.71
2022-08-18T01:42:18.763Z,21.59
2022-08-18T01:44:51.214Z,21.51
2022-08-18T01:47:21.138Z,21.40
2022-08-18T01:49:49.902Z,21.34
2022-08-18T01:52:21.712Z,21.30
2022-08-18T01:54:53.454Z,21.18
2022-08-18T01:57:22.941Z,21.09
2022-08-18T01:59:51.689Z,21.04
2022-08-18T02:02:26.194Z,20.96
2022-08-18T02:05:00.373Z,20.92
2022-08-18T02:07:36.171Z,20.83
2022-08-18T02:10:12.472Z,20.76
2022-08-18T02:12:45.721Z,20.69
2022-08-18T02:15:14.664Z,20.66
2022-08-18T02:17:45.778Z,20.72
2022-08-18T02:20:18.062Z,20.86
2022-08-18T02:22:48.132Z,20.97
2022-08-18T02:25:19.761Z,21.06
2022-08-18T02:27:48.712Z,21.07
2022-08-18T02:30:20.011Z,21.08
2022-08-18T02:32:48.898Z,21.09
2022-08-18T02:35:17.571Z,21.10
2022-08-18T02:37:48.405Z,21.08
2022-08-18T02:40:19.382Z,21.06
2022-08-18T02:42:48.431Z,21.07
2022-08-18T02:45:17.462Z,21.12
2022-08-18T02:47:46.729Z,21.14
2022-08-18T02:50:17.244Z,21.17
2022-08-18T02:52:45.981Z,21.21
2022-08-18T02:55:16.498Z,21.25
2022-08-18T02:57:49.506Z,21.28
2022-08-18T03:00:20.280Z,21.26
2022-08-18T03:02:49.972Z,21.25
2022-08-18T03:05:18.798Z,21.28
2022-08-18T03:07:48.005Z,21.28
2022-08-18T03:10:33.504Z,21.32
2022-08-18T03:13:05.329Z,21.33
2022-08-18T03:15:34.090Z,21.34
2022-08-18T03:18:02.734Z,21.32
2022-08-18T03:20:31.783Z,21.30
2022-08-18T03:23:05.831Z,21.27
2022-08-18T03:25:44.693Z,21.26
2022-08-18T03:28:15.272Z,21.29
2022-08-18T03:30:44.633Z,21.32
2022-08-18T03:33:13.419Z,21.32
2022-08-18T03:35:42.418Z,21.34
2022-08-18T03:38:11.177Z,21.30
2022-08-18T03:40:40.445Z,21.28
2022-08-18T03:43:50.046Z,21.27
2022-08-18T03:46:02.742Z,21.31
2022-08-18T03:48:33.902Z,21.34
2022-08-18T03:51:07.506Z,21.32
2022-08-18T03:53:36.624Z,21.33
2022-08-18T03:56:17.761Z,21.38
2022-08-18T03:58:49.622Z,21.40
2022-08-18T04:01:26.506Z,21.38
2022-08-18T04:03:59.264Z,21.36
2022-08-18T04:06:30.654Z,21.33
2022-08-18T04:09:02.384Z,21.35
2022-08-18T04:11:35.832Z,21.38
2022-08-18T04:14:06.411Z,21.43
2022-08-18T04:16:36.623Z,21.49
2022-08-18T04:19:05.823Z,21.52
2022-08-18T04:21:38.287Z,21.52
2022-08-18T04:24:08.423Z,21.58
2022-08-18T04:26:39.530Z,21.65
2022-08-18T04:29:09.468Z,21.71
2022-08-18T04:31:40.223Z,21.77
2022-08-18T04:34:09.299Z,21.87
2022-08-18T04:36:38.722Z,21.92
2022-08-18T04:39:09.700Z,21.98
2022-08-18T04:41:41.241Z,22.03
2022-08-18T04:44:11.961Z,22.09
2022-08-18T04:46:46.543Z,22.13
2022-08-18T04:49:17.344Z,22.18
2022-08-18T04:52:37.666Z,22.25
2022-08-18T04:54:58.382Z,22.34
2022-08-18T04:57:27.013Z,22.40
2022-08-18T04:59:58.056Z,22.48
2022-08-18T05:02:28.253Z,22.58
2022-08-18T05:04:57.016Z,22.65
2022-08-18T05:07:26.274Z,22.74
2022-08-18T05:09:56.813Z,22.83
2022-08-18T05:12:26.233Z,22.95
2022-08-18T05:14:57.525Z,23.04
2022-08-18T05:17:30.458Z,23.13
2022-08-18T05:20:01.503Z,23.20
2022-08-18T05:22:39.300Z,23.38
2022-08-18T05:27:48.334Z,23.66
2022-08-18T05:30:17.003Z,23.76
2022-08-18T05:32:50.442Z,23.84
2022-08-18T05:35:27.735Z,23.92
2022-08-18T05:38:16.375Z,24.04
2022-08-18T05:40:48.073Z,24.16
2022-08-18T05:43:18.492Z,24.28
2022-08-18T05:45:51.983Z,24.40
2022-08-18T05:48:22.228Z,24.59
2022-08-18T05:50:52.560Z,24.70
2022-08-18T05:53:41.482Z,24.86
2022-08-18T05:56:23.757Z,24.97
2022-08-18T05:58:57.832Z,25.16
2022-08-18T06:01:31.154Z,25.28
2022-08-18T06:04:08.147Z,25.38
2022-08-18T06:06:39.163Z,25.42
2022-08-18T06:09:14.483Z,25.51
2022-08-18T06:11:43.575Z,25.60
2022-08-18T06:14:13.871Z,25.63
2022-08-18T06:16:56.457Z,25.71
2022-08-18T06:19:44.797Z,25.89
2022-08-18T06:22:23.229Z,26.07
2022-08-18T06:25:02.570Z,26.17
2022-08-18T06:27:41.607Z,26.26
2022-08-18T06:30:16.537Z,26.41
2022-08-18T06:33:04.659Z,26.57
2022-08-18T06:35:39.165Z,26.67
2022-08-18T06:38:37.364Z,26.76
2022-08-18T06:41:40.517Z,26.84
2022-08-18T06:44:06.458Z,26.93
2022-08-18T06:46:43.506Z,26.99
2022-08-18T06:49:18.832Z,27.07
2022-08-18T06:51:48.946Z,27.21
2022-08-18T06:54:30.128Z,27.33
2022-08-18T06:57:00.439Z,27.46
2022-08-18T06:59:32.149Z,27.56
2022-08-18T07:02:22.424Z,27.64
2022-08-18T07:05:04.788Z,27.76
2022-08-18T07:07:39.472Z,27.88
2022-08-18T07:10:31.584Z,27.98
2022-08-18T07:13:22.778Z,28.08
2022-08-18T07:15:52.016Z,28.16
2022-08-18T07:18:26.656Z,28.22
2022-08-18T07:20:58.451Z,28.21
2022-08-18T07:23:35.277Z,28.34
2022-08-18T07:26:11.435Z,28.43
2022-08-18T07:28:44.531Z,28.56
2022-08-18T07:31:26.348Z,28.72
2022-08-18T07:34:01.186Z,28.77
2022-08-18T07:36:35.716Z,28.87
2022-08-18T07:39:13.044Z,28.99
2022-08-18T07:41:49.749Z,29.13
2022-08-18T07:44:25.225Z,29.23
2022-08-18T07:47:00.810Z,29.32
2022-08-18T07:49:35.377Z,29.46
2022-08-18T07:52:36.691Z,29.57
2022-08-18T07:55:12.225Z,29.71
2022-08-18T07:57:49.194Z,29.84
2022-08-18T08:00:54.847Z,29.94
2022-08-18T08:03:25.074Z,30.06
2022-08-18T08:05:59.687Z,30.14
2022-08-18T08:08:35.446Z,30.27
2022-08-18T08:11:20.468Z,30.40
2022-08-18T08:14:02.157Z,30.47
2022-08-18T08:16:41.894Z,30.57
2022-08-18T08:19:59.369Z,30.67
2022-08-18T08:22:32.166Z,30.84
2022-08-18T08:25:22.688Z,30.95
2022-08-18T08:28:15.166Z,31.00
2022-08-18T08:30:50.713Z,31.16
2022-08-18T08:33:26.275Z,31.18
2022-08-18T08:36:01.145Z,31.28
2022-08-18T08:38:44.974Z,31.35
2022-08-18T08:41:21.113Z,31.37
2022-08-18T08:44:00.070Z,31.36
2022-08-18T08:46:32.646Z,31.36
2022-08-18T08:49:09.827Z,31.34
2022-08-18T08:51:43.293Z,31.46
2022-08-18T08:54:19.160Z,31.50
2022-08-18T08:56:51.376Z,31.61
2022-08-18T08:59:23.567Z,31.75
2022-08-18T09:02:05.220Z,31.79
2022-08-18T09:05:07.786Z,31.91
2022-08-18T09:08:03.166Z,32.05
2022-08-18T09:10:51.537Z,32.22
2022-08-18T09:13:56.364Z,32.24
2022-08-18T09:16:42.631Z,32.21
2022-08-18T09:19:35.291Z,32.23
2022-08-18T09:22:17.167Z,32.35
2022-08-18T09:24:51.051Z,32.41
2022-08-18T09:27:43.587Z,32.60
2022-08-18T09:30:42.897Z,32.78
2022-08-18T09:33:24.810Z,32.90
2022-08-18T09:36:10.342Z,32.80
2022-08-18T09:39:03.407Z,32.82
2022-08-18T09:41:38.430Z,32.93
2022-08-18T09:44:17.902Z,33.05
2022-08-18T09:47:01.313Z,33.13
2022-08-18T09:49:51.388Z,33.23
2022-08-18T09:52:43.749Z,33.30
2022-08-18T09:55:39.150Z,33.33
2022-08-18T09:58:22.900Z,33.36
2022-08-18T10:01:36.210Z,33.17
2022-08-18T10:04:33.754Z,33.30
2022-08-18T10:10:59.235Z,33.54
2022-08-18T10:13:25.407Z,33.58
2022-08-18T10:16:11.143Z,33.62
2022-08-18T10:18:53.892Z,33.67
2022-08-18T10:21:31.412Z,33.71
2022-08-18T10:27:23.293Z,33.80
2022-08-18T10:29:57.342Z,33.94
2022-08-18T10:32:54.138Z,33.94
2022-08-18T10:35:53.651Z,34.06
2022-08-18T10:38:30.804Z,34.21
2022-08-18T10:41:15.332Z,34.31
2022-08-18T10:43:55.635Z,34.33
2022-08-18T10:49:27.222Z,34.56
2022-08-18T10:52:16.433Z,34.51
2022-08-18T10:55:19.254Z,34.57
2022-08-18T10:58:20.022Z,34.55
2022-08-18T11:01:09.089Z,34.71
2022-08-18T11:03:59.918Z,34.80
2022-08-18T11:06:48.950Z,34.87
2022-08-18T11:09:27.111Z,34.70
2022-08-18T11:11:59.756Z,34.74
2022-08-18T11:14:53.688Z,35.09
2022-08-18T11:17:37.131Z,35.23
2022-08-18T11:20:12.672Z,35.22
2022-08-18T11:22:52.047Z,35.15
2022-08-18T11:28:19.520Z,35.23
2022-08-18T11:30:58.099Z,35.31
2022-08-18T11:33:27.332Z,35.33
2022-08-18T11:35:58.777Z,35.47
2022-08-18T11:38:33.024Z,35.55
2022-08-18T11:41:19.187Z,35.58
2022-08-18T11:43:50.505Z,35.58
2022-08-18T11:46:31.517Z,35.43
2022-08-18T11:55:23.969Z,35.46
2022-08-18T11:57:58.565Z,35.38
2022-08-18T12:00:57.259Z,35.52
2022-08-18T12:03:41.687Z,35.66
2022-08-18T12:06:26.766Z,35.84
2022-08-18T12:09:01.059Z,35.87
2022-08-18T12:11:33.182Z,35.80
2022-08-18T12:14:31.703Z,35.84
2022-08-18T12:16:57.651Z,35.93
2022-08-18T12:19:31.308Z,36.04
2022-08-18T12:22:15.897Z,36.03
2022-08-18T12:27:36.588Z,36.05
2022-08-18T12:30:06.511Z,36.11
2022-08-18T12:32:48.879Z,36.11
2022-08-18T12:35:22.477Z,36.15
2022-08-18T12:37:59.463Z,36.15
2022-08-18T12:40:32.956Z,36.06
2022-08-18T12:43:01.773Z,36.09
2022-08-18T12:45:31.439Z,36.19
2022-08-18T12:48:04.398Z,36.31
2022-08-18T12:50:41.139Z,36.30
2022-08-18T12:53:29.693Z,36.37
2022-08-18T12:56:15.871Z,36.44
2022-08-18T12:58:48.794Z,36.46
2022-08-18T13:01:17.823Z,36.48
2022-08-18T13:03:52.596Z,36.47
2022-08-18T13:06:45.398Z,36.57
2022-08-18T13:09:47.648Z,36.48
2022-08-18T13:12:20.203Z,36.61
2022-08-18T13:14:50.933Z,36.75
2022-08-18T13:17:32.463Z,36.91
2022-08-18T13:20:09.679Z,36.80
2022-08-18T13:22:40.653Z,36.80
2022-08-18T13:25:12.845Z,36.84
2022-08-18T13:27:58.121Z,36.78
2022-08-18T13:30:31.453Z,36.59
2022-08-18T13:33:05.942Z,36.60
2022-08-18T13:35:54.384Z,36.46
2022-08-18T13:38:27.614Z,36.48
2022-08-18T13:40:59.399Z,36.42
2022-08-18T13:43:32.633Z,36.33
2022-08-18T13:46:04.036Z,36.43
2022-08-18T13:48:33.293Z,36.43
2022-08-18T13:51:04.526Z,36.37
2022-08-18T13:53:50.411Z,36.36
2022-08-18T13:56:31.304Z,36.26
2022-08-18T13:59:00.621Z,36.17
2022-08-18T14:01:52.164Z,36.20
2022-08-18T14:04:20.176Z,36.18
2022-08-18T14:06:56.009Z,36.17
2022-08-18T14:09:37.363Z,36.21
2022-08-18T14:12:21.569Z,36.18
2022-08-18T14:14:52.796Z,36.11
2022-08-18T14:17:22.837Z,36.01
2022-08-18T14:20:01.759Z,35.99
2022-08-18T14:22:39.564Z,36.01
2022-08-18T14:25:22.223Z,35.97
2022-08-18T14:27:56.831Z,35.94
2022-08-18T14:30:26.847Z,35.96
2022-08-18T14:32:55.711Z,35.91
2022-08-18T14:35:34.329Z,35.87
2022-08-18T14:38:16.547Z,35.85
2022-08-18T14:40:49.876Z,35.79
2022-08-18T14:43:24.995Z,35.75
2022-08-18T14:45:58.200Z,35.84
2022-08-18T14:48:27.697Z,35.82
2022-08-18T14:50:59.134Z,35.79
2022-08-18T14:53:30.412Z,35.75
2022-08-18T14:56:01.322Z,35.65
2022-08-18T14:58:33.096Z,35.51
2022-08-18T15:01:08.294Z,35.55
2022-08-18T15:03:37.910Z,35.53
2022-08-18T15:06:08.825Z,35.56
2022-08-18T15:08:47.053Z,35.58
2022-08-18T15:11:17.650Z,35.55
2022-08-18T15:13:46.804Z,35.52
2022-08-18T15:16:18.008Z,35.53
2022-08-18T15:18:47.163Z,35.52
2022-08-18T15:21:35.774Z,35.51
2022-08-18T15:24:19.464Z,35.45
2022-08-18T15:26:57.614Z,35.34
2022-08-18T15:29:32.375Z,35.32
2022-08-18T15:32:10.121Z,35.32
2022-08-18T15:34:47.101Z,35.26
2022-08-18T15:37:23.999Z,35.23
2022-08-18T15:40:30.117Z,35.26
2022-08-18T15:43:03.156Z,35.23
2022-08-18T15:45:43.274Z,35.17
2022-08-18T15:48:26.373Z,35.11
2022-08-18T15:50:55.369Z,35.07
2022-08-18T15:53:26.200Z,34.99
2022-08-18T15:56:04.256Z,34.97
2022-08-18T15:58:36.106Z,34.92
2022-08-18T16:01:21.129Z,34.84
2022-08-18T16:03:59.958Z,34.74
2022-08-18T16:06:32.682Z,34.63
2022-08-18T16:09:02.779Z,34.58
2022-08-18T16:11:31.938Z,34.56
2022-08-18T16:14:01.682Z,34.52
2022-08-18T16:16:35.605Z,34.50
2022-08-18T16:19:07.164Z,34.46
2022-08-18T16:21:38.081Z,34.42
2022-08-18T16:24:07.329Z,34.36
2022-08-18T16:26:36.147Z,34.32
2022-08-18T16:29:06.082Z,34.25
2022-08-18T16:31:34.672Z,34.20
2022-08-18T16:34:03.197Z,34.11
2022-08-18T16:36:31.803Z,34.04
2022-08-18T16:39:00.419Z,33.96
2022-08-18T16:41:31.958Z,33.89
2022-08-18T16:44:00.620Z,33.78
2022-08-18T16:46:30.539Z,33.71
2022-08-18T16:49:00.200Z,33.60
2022-08-18T16:51:30.290Z,33.53
2022-08-18T16:53:59.801Z,33.45
2022-08-18T16:56:31.250Z,33.36
2022-08-18T16:59:09.831Z,33.27
2022-08-18T17:01:49.984Z,33.20
2022-08-18T17:04:22.652Z,33.09
2022-08-18T17:06:52.002Z,32.99
2022-08-18T17:09:21.822Z,32.87
2022-08-18T17:11:52.211Z,32.76
2022-08-18T17:14:22.742Z,32.68
2022-08-18T17:16:55.319Z,32.66
2022-08-18T17:19:25.893Z,32.66
2022-08-18T17:21:55.862Z,32.52
2022-08-18T17:24:31.241Z,32.37
2022-08-18T17:27:17.884Z,32.14
2022-08-18T17:30:03.453Z,31.90
2022-08-18T17:32:42.123Z,31.67
2022-08-18T17:35:15.063Z,31.56
2022-08-18T17:37:49.595Z,31.48
2022-08-18T17:40:28.628Z,31.43
2022-08-18T17:43:00.010Z,31.34
2022-08-18T17:45:32.133Z,31.24
2022-08-18T17:48:08.914Z,31.14
2022-08-18T17:50:51.944Z,30.98
2022-08-18T17:53:22.734Z,30.85
2022-08-18T17:56:00.025Z,30.76
2022-08-18T17:58:38.244Z,30.67
2022-08-18T18:01:07.186Z,30.59
2022-08-18T18:03:38.006Z,30.48
2022-08-18T18:06:15.325Z,30.37
2022-08-18T18:08:53.332Z,30.23
2022-08-18T18:11:31.205Z,30.14
2022-08-18T18:14:01.120Z,30.06
2022-08-18T18:16:35.628Z,30.00
2022-08-18T18:19:08.844Z,29.95
2022-08-18T18:21:53.509Z,29.89
2022-08-18T18:24:33.467Z,29.76
2022-08-18T18:27:02.699Z,29.70
2022-08-18T18:29:37.947Z,29.63
2022-08-18T18:32:23.979Z,29.56
2022-08-18T18:35:16.516Z,29.47
2022-08-18T18:37:51.925Z,29.37
2022-08-18T18:40:31.636Z,29.20
2022-08-18T18:43:22.087Z,29.06
2022-08-18T18:46:06.005Z,28.94
2022-08-18T18:48:51.798Z,28.77
2022-08-18T18:51:33.506Z,28.70
2022-08-18T18:54:17.168Z,28.58
2022-08-18T18:56:52.683Z,28.48
2022-08-18T18:59:35.654Z,28.44
2022-08-18T19:02:33.484Z,28.34
2022-08-18T19:05:18.966Z,28.29
2022-08-18T19:08:00.535Z,28.25
2022-08-18T19:10:37.435Z,28.25
2022-08-18T19:13:32.216Z,28.20
2022-08-18T19:16:21.501Z,28.09
2022-08-18T19:19:35.348Z,27.91
2022-08-18T19:22:04.633Z,27.79
2022-08-18T19:24:44.245Z,27.70
2022-08-18T19:27:23.585Z,27.56
2022-08-18T19:29:58.063Z,27.39
2022-08-18T19:32:36.215Z,27.29
2022-08-18T19:35:12.129Z,27.27
2022-08-18T19:38:04.610Z,27.21
2022-08-18T19:40:45.315Z,27.13
2022-08-18T19:43:27.776Z,27.12
2022-08-18T19:46:05.476Z,27.14
2022-08-18T19:48:40.756Z,27.16
2022-08-18T19:51:16.485Z,27.19
2022-08-18T19:54:02.144Z,27.21
2022-08-18T19:56:49.587Z,27.21
2022-08-18T19:59:35.426Z,27.15
2022-08-18T20:02:26.727Z,27.15
2022-08-18T20:05:10.588Z,27.10
2022-08-18T20:08:03.427Z,27.05
2022-08-18T20:11:04.419Z,26.98
2022-08-18T20:13:42.484Z,26.92
2022-08-18T20:16:28.672Z,26.95
2022-08-18T20:19:34.235Z,26.95
2022-08-18T20:22:05.738Z,26.92
2022-08-18T20:24:45.842Z,26.89
2022-08-18T20:27:36.207Z,26.83
2022-08-18T20:30:28.165Z,26.81
2022-08-18T20:33:17.988Z,26.80
2022-08-18T20:36:11.665Z,26.77
2022-08-18T20:38:45.976Z,26.75
2022-08-18T20:41:27.918Z,26.74
2022-08-18T20:44:21.561Z,26.78
2022-08-18T20:47:16.976Z,26.78
2022-08-18T20:49:58.588Z,26.83
2022-08-18T20:52:38.728Z,26.82
2022-08-18T20:55:27.555Z,26.89
2022-08-18T20:58:08.307Z,26.90
2022-08-18T21:00:43.951Z,27.00
2022-08-18T21:03:17.156Z,27.14
2022-08-18T21:05:47.634Z,27.25
2022-08-18T21:08:29.187Z,27.25
2022-08-18T21:11:00.838Z,27.22
2022-08-18T21:13:40.782Z,27.14
2022-08-18T21:16:10.245Z,27.17
2022-08-18T21:18:41.814Z,27.24
2022-08-18T21:21:26.894Z,27.19
2022-08-18T21:24:00.166Z,27.26
2022-08-18T21:26:31.334Z,27.27
2022-08-18T21:29:09.205Z,27.27
2022-08-18T21:31:44.243Z,27.15
2022-08-18T21:34:18.666Z,27.14
2022-08-18T21:36:54.866Z,27.11
2022-08-18T21:39:24.155Z,27.08
2022-08-18T21:41:55.225Z,27.00
2022-08-18T21:44:26.409Z,27.01
2022-08-18T21:47:06.853Z,26.93
2022-08-18T21:49:38.174Z,26.88
2022-08-18T21:52:07.352Z,26.87
2022-08-18T21:54:36.355Z,26.86
2022-08-18T21:57:21.475Z,26.97
2022-08-18T22:00:17.492Z,27.04
2022-08-18T22:02:47.365Z,27.08
2022-08-18T22:05:27.685Z,27.18
2022-08-18T22:07:56.674Z,27.21
2022-08-18T22:10:39.944Z,27.13
2022-08-18T22:13:29.003Z,27.06
2022-08-18T22:15:57.833Z,27.10
2022-08-18T22:18:44.403Z,27.16
2022-08-18T22:21:37.304Z,27.13
2022-08-18T22:24:19.677Z,27.04
2022-08-18T22:26:51.823Z,26.96
2022-08-18T22:29:32.793Z,26.93
2022-08-18T22:32:04.374Z,26.88
2022-08-18T22:34:34.871Z,26.83
2022-08-18T22:37:11.234Z,26.88
2022-08-18T22:39:48.045Z,26.92
2022-08-18T22:42:17.795Z,27.36
2022-08-18T22:44:46.852Z,27.46
2022-08-18T22:47:15.675Z,27.43
2022-08-18T22:49:45.471Z,27.35
2022-08-18T22:52:20.353Z,27.20
2022-08-18T22:55:02.674Z,27.12
2022-08-18T22:57:36.614Z,27.13
2022-08-18T23:00:10.316Z,27.14
2022-08-18T23:02:39.507Z,27.05
2022-08-18T23:05:09.214Z,27.28
2022-08-18T23:07:39.535Z,27.55
2022-08-18T23:10:14.315Z,27.80
2022-08-18T23:12:43.272Z,27.95
2022-08-18T23:15:12.553Z,28.08
2022-08-18T23:17:41.095Z,28.19
2022-08-18T23:20:18.235Z,28.28
2022-08-18T23:22:49.234Z,28.38
2022-08-18T23:25:18.185Z,28.37
2022-08-18T23:27:46.658Z,28.41
2022-08-18T23:30:15.388Z,28.48
2022-08-18T23:32:44.281Z,28.55
2022-08-18T23:35:12.907Z,28.58
2022-08-18T23:37:41.726Z,28.58
2022-08-18T23:40:15.358Z,28.64
2022-08-18T23:42:44.294Z,28.74
2022-08-18T23:45:13.305Z,28.76
2022-08-18T23:47:42.315Z,28.78
2022-08-18T23:50:12.313Z,28.77
2022-08-18T23:52:41.706Z,28.80
2022-08-18T23:55:13.138Z,28.75
2022-08-18T23:57:41.818Z,28.76
